createdAt,value
2023-04-25T00:01:15.463Z,97770.44
2023-04-25T00:03:41.743Z,97772.31
2023-04-25T00:06:08.057Z,97766.97
2023-04-25T00:08:34.651Z,97766.16
2023-04-25T00:11:00.749Z,97762.66
2023-04-25T00:13:26.843Z,97763.69
2023-04-25T00:15:53.475Z,97767.19
2023-04-25T00:18:19.593Z,97765.56
2023-04-25T00:20:45.693Z,97762.06
2023-04-25T00:23:11.794Z,97768.22
2023-04-25T00:25:37.887Z,97770.28
2023-04-25T00:28:04.000Z,97764.13
2023-04-25T00:30:30.137Z,97764.94
2023-04-25T00:32:56.296Z,97767.81
2023-04-25T00:35:22.438Z,97775.84
2023-04-25T00:37:48.547Z,97765.16
2023-04-25T00:40:14.634Z,97769.69
2023-04-25T00:42:40.744Z,97766.22
2023-04-25T00:45:06.890Z,97758.41
2023-04-25T00:47:33.011Z,97764.56
2023-04-25T00:49:59.133Z,97765.59
2023-04-25T00:52:25.253Z,97756.19
2023-04-25T00:54:51.344Z,97758.63
2023-04-25T00:57:17.453Z,97758.63
2023-04-25T00:59:43.574Z,97766.66
2023-04-25T01:02:09.794Z,97766.03
2023-04-25T01:04:35.903Z,97763.38
2023-04-25T01:07:02.009Z,97759.66
2023-04-25T01:09:28.295Z,97763.38
2023-04-25T01:11:54.429Z,97758.47
2023-04-25T01:14:20.613Z,97769.97
2023-04-25T01:16:46.754Z,97768.13
2023-04-25T01:19:12.883Z,97770.78
2023-04-25T01:21:39.076Z,97765.44
2023-04-25T01:24:05.193Z,97773.44
2023-04-25T01:26:31.302Z,97762.97
2023-04-25T01:28:57.447Z,97761.16
2023-04-25T01:31:23.563Z,97771.00
2023-04-25T01:33:49.973Z,97766.50
2023-04-25T01:36:16.297Z,97769.16
2023-04-25T01:38:42.384Z,97779.84
2023-04-25T01:41:08.476Z,97762.16
2023-04-25T01:43:34.612Z,97768.31
2023-04-25T01:46:00.737Z,97775.50
2023-04-25T01:48:26.869Z,97774.09
2023-04-25T01:50:53.082Z,97779.22
2023-04-25T01:53:19.188Z,97781.91
2023-04-25T01:55:45.272Z,97784.56
2023-04-25T01:58:11.387Z,97784.56
2023-04-25T02:00:37.479Z,97789.06
2023-04-25T02:03:03.655Z,97786.41
2023-04-25T02:05:29.884Z,97788.88
2023-04-25T02:07:56.009Z,97789.06
2023-04-25T02:10:22.119Z,97793.59
2023-04-25T02:12:48.230Z,97802.41
2023-04-25T02:15:14.307Z,97799.75
2023-04-25T02:17:40.456Z,97795.47
2023-04-25T02:20:06.597Z,97800.78
2023-04-25T02:22:32.694Z,97798.13
2023-04-25T02:24:59.129Z,97797.06
2023-04-25T02:27:25.258Z,97795.47
2023-04-25T02:29:51.353Z,97801.84
2023-04-25T02:32:17.447Z,97803.47
2023-04-25T02:34:43.567Z,97797.31
2023-04-25T02:37:09.672Z,97805.31
2023-04-25T02:39:35.798Z,97805.31
2023-04-25T02:42:01.926Z,97798.34
2023-04-25T02:44:28.044Z,97800.19
2023-04-25T02:46:54.211Z,97809.84
2023-04-25T02:49:20.341Z,97803.66
2023-04-25T02:51:46.455Z,97809.00
2023-04-25T02:54:12.547Z,97806.56
2023-04-25T02:56:38.703Z,97817.03
2023-04-25T02:59:04.861Z,97806.34
2023-04-25T03:01:30.991Z,97805.75
2023-04-25T03:03:57.121Z,97798.56
2023-04-25T03:06:23.246Z,97808.44
2023-04-25T03:08:49.716Z,97804.94
2023-04-25T03:11:15.844Z,97806.78
2023-04-25T03:13:41.929Z,97813.78
2023-04-25T03:16:08.085Z,97810.25
2023-04-25T03:18:34.245Z,97804.94
2023-04-25T03:21:00.388Z,97814.78
2023-04-25T03:23:26.496Z,97815.59
2023-04-25T03:25:52.727Z,97809.44
2023-04-25T03:28:18.840Z,97818.50
2023-04-25T03:30:44.957Z,97817.66
2023-04-25T03:33:11.103Z,97818.50
2023-04-25T03:35:37.232Z,97821.38
2023-04-25T03:38:03.317Z,97820.34
2023-04-25T03:40:29.432Z,97818.50
2023-04-25T03:42:55.534Z,97821.38
2023-04-25T03:45:21.613Z,97825.66
2023-04-25T03:47:47.791Z,97825.09
2023-04-25T03:50:13.906Z,97831.25
2023-04-25T03:52:40.022Z,97833.91
2023-04-25T03:55:06.143Z,97829.59
2023-04-25T03:57:32.258Z,97829.59
2023-04-25T03:59:58.367Z,97838.66
2023-04-25T04:02:24.597Z,97842.13
2023-04-25T04:04:51.345Z,97839.47
2023-04-25T04:07:17.580Z,97833.31
2023-04-25T04:09:43.705Z,97837.84
2023-04-25T04:12:09.820Z,97845.59
2023-04-25T04:14:35.954Z,97848.50
2023-04-25T04:17:02.123Z,97853.63
2023-04-25T04:19:28.220Z,97844.78
2023-04-25T04:21:54.314Z,97847.47
2023-04-25T04:24:20.444Z,97858.13
2023-04-25T04:26:46.537Z,97853.03
2023-04-25T04:29:12.630Z,97843.16
2023-04-25T04:31:39.287Z,97855.72
2023-04-25T04:34:05.433Z,97852.19
2023-04-25T04:36:31.527Z,97851.38
2023-04-25T04:38:57.629Z,97857.75
2023-04-25T04:41:23.727Z,97858.38
2023-04-25T04:43:50.003Z,97857.53
2023-04-25T04:46:16.361Z,97864.72
2023-04-25T04:48:42.480Z,97864.72
2023-04-25T04:51:08.579Z,97866.59
2023-04-25T04:53:34.731Z,97870.06
2023-04-25T04:56:00.829Z,97881.56
2023-04-25T04:58:26.931Z,97878.06
2023-04-25T05:00:53.092Z,97896.97
2023-04-25T05:03:19.325Z,97905.81
2023-04-25T05:05:45.500Z,97908.47
2023-04-25T05:08:11.601Z,97910.31
2023-04-25T05:10:37.704Z,97902.31
2023-04-25T05:13:03.821Z,97900.47
2023-04-25T05:15:29.994Z,97900.47
2023-04-25T05:17:56.115Z,97904.97
2023-04-25T05:20:22.260Z,97901.50
2023-04-25T05:22:48.368Z,97905.19
2023-04-25T05:25:14.461Z,97908.69
2023-04-25T05:27:40.557Z,97908.69
2023-04-25T05:30:06.695Z,97917.50
2023-04-25T05:32:32.878Z,97928.19
2023-04-25T05:34:59.062Z,97933.53
2023-04-25T05:37:25.236Z,97920.19
2023-04-25T05:39:51.341Z,97925.75
2023-04-25T05:42:17.442Z,97931.09
2023-04-25T05:44:43.571Z,97929.44
2023-04-25T05:47:09.671Z,97935.38
2023-04-25T05:49:35.766Z,97939.91
2023-04-25T05:52:01.898Z,97941.75
2023-04-25T05:54:27.995Z,97943.59
2023-04-25T05:56:54.095Z,97943.59
2023-04-25T05:59:20.214Z,97954.06
2023-04-25T06:01:46.306Z,97953.03
2023-04-25T06:04:12.596Z,97954.88
2023-04-25T06:06:38.866Z,97955.91
2023-04-25T06:09:04.990Z,97956.72
2023-04-25T06:11:31.094Z,97958.59
2023-04-25T06:13:57.217Z,97963.13
2023-04-25T06:16:23.389Z,97964.13
2023-04-25T06:18:49.496Z,97967.59
2023-04-25T06:21:15.746Z,97964.94
2023-04-25T06:23:41.861Z,97978.28
2023-04-25T06:26:07.968Z,97975.84
2023-04-25T06:28:34.100Z,97982.00
2023-04-25T06:31:00.256Z,97982.00
2023-04-25T06:33:26.368Z,97978.28
2023-04-25T06:35:52.551Z,97985.47
2023-04-25T06:38:18.663Z,97978.50
2023-04-25T06:40:44.788Z,97981.19
2023-04-25T06:43:10.914Z,97984.88
2023-04-25T06:45:37.008Z,97978.72
2023-04-25T06:48:03.154Z,97979.53
2023-04-25T06:50:29.335Z,97984.88
2023-04-25T06:52:55.635Z,97985.91
2023-04-25T06:55:21.770Z,97990.44
2023-04-25T06:57:47.923Z,97988.56
2023-04-25T07:00:14.021Z,97988.56
2023-04-25T07:02:40.220Z,97990.44
2023-04-25T07:05:06.418Z,97991.25
2023-04-25T07:07:32.524Z,98002.72
2023-04-25T07:09:58.618Z,97996.78
2023-04-25T07:12:24.749Z,97998.44
2023-04-25T07:14:50.855Z,97998.44
2023-04-25T07:17:16.953Z,97996.78
2023-04-25T07:19:43.072Z,98000.28
2023-04-25T07:22:09.390Z,98010.13
2023-04-25T07:24:35.492Z,98008.31
2023-04-25T07:27:01.695Z,98012.81
2023-04-25T07:29:27.856Z,98011.97
2023-04-25T07:31:54.038Z,98010.13
2023-04-25T07:34:20.232Z,98007.47
2023-04-25T07:36:46.334Z,98012.41
2023-04-25T07:39:12.449Z,98009.50
2023-04-25T07:41:38.623Z,98021.03
2023-04-25T07:44:04.768Z,98023.47
2023-04-25T07:46:30.920Z,98024.72
2023-04-25T07:48:57.101Z,98034.56
2023-04-25T07:51:23.223Z,98032.72
2023-04-25T07:53:50.714Z,98030.66
2023-04-25T07:56:16.968Z,98026.38
2023-04-25T07:58:43.190Z,98033.53
2023-04-25T08:01:09.302Z,98036.19
2023-04-25T08:03:35.725Z,98040.53
2023-04-25T08:06:04.861Z,98039.72
2023-04-25T08:08:33.185Z,98038.28
2023-04-25T08:10:59.307Z,98048.97
2023-04-25T08:13:25.409Z,98054.31
2023-04-25T08:15:51.564Z,98058.59
2023-04-25T08:18:17.992Z,98065.56
2023-04-25T08:20:44.196Z,98059.41
2023-04-25T08:23:10.334Z,98063.75
2023-04-25T08:25:36.471Z,98070.09
2023-04-25T08:28:02.575Z,98077.28
2023-04-25T08:30:28.675Z,98080.75
2023-04-25T08:32:54.882Z,98078.09
2023-04-25T08:35:21.211Z,98083.84
2023-04-25T08:37:47.327Z,98085.28
2023-04-25T08:40:13.444Z,98081.81
2023-04-25T08:42:39.543Z,98081.38
2023-04-25T08:45:07.128Z,98100.28
2023-04-25T08:47:33.452Z,98097.19
2023-04-25T08:49:59.599Z,98107.69
2023-04-25T08:52:25.737Z,98107.69
2023-04-25T08:54:51.849Z,98109.72
2023-04-25T08:57:17.986Z,98113.41
2023-04-25T08:59:44.110Z,98125.75
2023-04-25T09:02:10.333Z,98133.94
2023-04-25T09:04:36.497Z,98122.88
2023-04-25T09:07:02.614Z,98126.97
2023-04-25T09:09:28.754Z,98130.47
2023-04-25T09:11:54.850Z,98138.28
2023-04-25T09:14:20.942Z,98135.38
2023-04-25T09:16:47.311Z,98132.09
2023-04-25T09:19:13.453Z,98142.56
2023-04-25T09:21:39.551Z,98144.22
2023-04-25T09:24:05.675Z,98146.66
2023-04-25T09:26:31.792Z,98148.53
2023-04-25T09:28:57.904Z,98154.47
2023-04-25T09:31:24.655Z,98152.44
2023-04-25T09:33:51.819Z,98151.38
2023-04-25T09:36:18.885Z,98153.06
2023-04-25T09:38:45.037Z,98160.00
2023-04-25T09:41:11.133Z,98161.88
2023-04-25T09:43:37.253Z,98158.38
2023-04-25T09:46:03.557Z,98159.41
2023-04-25T09:48:29.696Z,98171.31
2023-04-25T09:50:55.838Z,98177.06
2023-04-25T09:53:21.941Z,98172.97
2023-04-25T09:55:48.045Z,98177.88
2023-04-25T09:58:14.135Z,98171.53
2023-04-25T10:00:40.245Z,98180.53
2023-04-25T10:03:06.414Z,98175.41
2023-04-25T10:05:32.616Z,98176.25
2023-04-25T10:07:59.101Z,98184.25
2023-04-25T10:10:25.272Z,98178.06
2023-04-25T10:12:51.384Z,98187.31
2023-04-25T10:15:17.511Z,98190.81
2023-04-25T10:17:43.682Z,98185.47
2023-04-25T10:20:09.829Z,98188.13
2023-04-25T10:22:35.936Z,98193.28
2023-04-25T10:25:02.035Z,98193.47
2023-04-25T10:27:28.119Z,98202.50
2023-04-25T10:29:54.231Z,98208.66
2023-04-25T10:32:20.456Z,98217.28
2023-04-25T10:34:46.632Z,98213.00
2023-04-25T10:37:12.767Z,98218.09
2023-04-25T10:39:38.865Z,98216.47
2023-04-25T10:42:04.978Z,98212.78
2023-04-25T10:44:31.110Z,98222.63
2023-04-25T10:46:57.247Z,98220.78
2023-04-25T10:49:23.376Z,98217.91
2023-04-25T10:51:55.464Z,98221.81
2023-04-25T10:54:21.950Z,98214.44
2023-04-25T10:56:48.043Z,98215.25
2023-04-25T10:59:14.157Z,98216.06
2023-04-25T11:01:40.335Z,98212.59
2023-04-25T11:04:06.689Z,98204.34
2023-04-25T11:06:32.978Z,98205.38
2023-04-25T11:08:59.133Z,98206.19
2023-04-25T11:11:25.215Z,98201.09
2023-04-25T11:13:51.374Z,98212.59
2023-04-25T11:16:23.838Z,98206.19
2023-04-25T11:18:53.739Z,98215.03
2023-04-25T11:21:20.037Z,98209.69
2023-04-25T11:23:46.130Z,98216.88
2023-04-25T11:26:12.239Z,98220.38
2023-04-25T11:28:38.344Z,98217.72
2023-04-25T11:31:04.433Z,98227.16
2023-04-25T11:33:30.557Z,98208.66
2023-04-25T11:35:56.645Z,98223.88
2023-04-25T11:38:24.736Z,98224.69
2023-04-25T11:40:51.419Z,98233.50
2023-04-25T11:43:18.920Z,98236.78
2023-04-25T11:45:47.786Z,98247.69
2023-04-25T11:48:14.008Z,98243.16
2023-04-25T11:50:40.279Z,98249.31
2023-04-25T11:53:06.394Z,98240.06
2023-04-25T11:55:32.518Z,98246.84
2023-04-25T11:57:58.654Z,98257.13
2023-04-25T12:00:24.761Z,98246.03
2023-04-25T12:02:50.961Z,98252.19
2023-04-25T12:05:31.158Z,98260.19
2023-04-25T12:07:58.578Z,98270.47
2023-04-25T12:10:24.687Z,98271.91
2023-04-25T12:12:50.787Z,98276.00
2023-04-25T12:15:16.947Z,98276.00
2023-04-25T12:17:43.200Z,98282.16
2023-04-25T12:20:09.399Z,98271.50
2023-04-25T12:22:35.519Z,98278.69
2023-04-25T12:25:01.636Z,98280.13
2023-04-25T12:27:27.733Z,98280.75
2023-04-25T12:29:53.923Z,98287.53
2023-04-25T12:32:20.024Z,98279.69
2023-04-25T12:34:46.177Z,98276.84
2023-04-25T12:37:12.348Z,98281.75
2023-04-25T12:39:38.472Z,98279.72
2023-04-25T12:42:06.108Z,98274.16
2023-04-25T12:44:34.068Z,98272.13
2023-04-25T12:47:00.199Z,98270.25
2023-04-25T12:49:26.317Z,98267.41
2023-04-25T12:51:52.490Z,98269.88
2023-04-25T12:54:18.643Z,98273.97
2023-04-25T12:56:44.763Z,98280.75
2023-04-25T12:59:10.961Z,98265.72
2023-04-25T13:01:37.440Z,98270.47
2023-04-25T13:04:03.790Z,98266.16
2023-04-25T13:06:30.060Z,98262.06
2023-04-25T13:08:56.144Z,98278.69
2023-04-25T13:11:22.245Z,98271.72
2023-04-25T13:13:48.634Z,98274.56
2023-04-25T13:16:15.097Z,98258.38
2023-04-25T13:18:41.239Z,98274.78
2023-04-25T13:21:07.376Z,98266.78
2023-04-25T13:23:33.479Z,98266.16
2023-04-25T13:25:59.592Z,98273.16
2023-04-25T13:28:25.697Z,98273.53
2023-04-25T13:30:51.797Z,98268.63
2023-04-25T13:33:17.911Z,98281.97
2023-04-25T13:35:44.022Z,98273.97
2023-04-25T13:38:10.154Z,98277.44
2023-04-25T13:40:36.505Z,98277.25
2023-04-25T13:43:02.642Z,98276.84
2023-04-25T13:45:29.295Z,98287.53
2023-04-25T13:47:56.763Z,98282.38
2023-04-25T13:50:22.948Z,98280.53
2023-04-25T13:52:49.043Z,98294.91
2023-04-25T13:55:15.125Z,98298.63
2023-04-25T13:57:41.522Z,98294.72
2023-04-25T14:00:07.660Z,98304.56
2023-04-25T14:02:33.828Z,98311.72
2023-04-25T14:05:00.458Z,98312.78
2023-04-25T14:07:26.675Z,98305.78
2023-04-25T14:09:52.793Z,98316.25
2023-04-25T14:12:18.924Z,98318.94
2023-04-25T14:14:45.035Z,98316.25
2023-04-25T14:17:11.145Z,98307.44
2023-04-25T14:19:37.269Z,98297.38
2023-04-25T14:22:03.386Z,98302.91
2023-04-25T14:24:29.534Z,98308.66
2023-04-25T14:26:55.667Z,98310.09
2023-04-25T14:29:21.764Z,98309.28
2023-04-25T14:31:47.951Z,98316.25
2023-04-25T14:34:14.124Z,98308.44
2023-04-25T14:36:40.219Z,98305.56
2023-04-25T14:39:06.416Z,98305.19
2023-04-25T14:41:32.588Z,98312.97
2023-04-25T14:43:58.713Z,98309.69
2023-04-25T14:46:24.863Z,98306.41
2023-04-25T14:48:51.048Z,98300.69
2023-04-25T14:51:17.177Z,98300.69
2023-04-25T14:53:43.288Z,98302.31
2023-04-25T14:56:09.423Z,98307.44
2023-04-25T14:58:35.523Z,98293.47
2023-04-25T15:01:01.642Z,98301.06
2023-04-25T15:03:27.886Z,98303.13
2023-04-25T15:05:54.228Z,98303.75
2023-04-25T15:08:20.341Z,98306.41
2023-04-25T15:10:46.471Z,98307.22
2023-04-25T15:13:12.623Z,98308.91
2023-04-25T15:15:38.738Z,98298.22
2023-04-25T15:18:04.928Z,98302.13
2023-04-25T15:20:31.050Z,98301.88
2023-04-25T15:22:57.153Z,98297.59
2023-04-25T15:25:23.259Z,98298.59
2023-04-25T15:27:49.508Z,98296.16
2023-04-25T15:30:15.789Z,98294.91
2023-04-25T15:32:41.950Z,98305.59
2023-04-25T15:35:08.065Z,98302.72
2023-04-25T15:37:34.167Z,98310.31
2023-04-25T15:40:00.297Z,98312.56
2023-04-25T15:42:26.413Z,98317.09
2023-04-25T15:44:52.565Z,98314.22
2023-04-25T15:47:18.734Z,98318.53
2023-04-25T15:49:44.839Z,98333.94
2023-04-25T15:52:10.961Z,98347.50
2023-04-25T15:54:37.073Z,98343.97
2023-04-25T15:57:03.171Z,98349.94
2023-04-25T15:59:29.265Z,98348.09
2023-04-25T16:01:55.460Z,98358.56
2023-04-25T16:04:21.786Z,98346.03
2023-04-25T16:06:48.189Z,98338.03
2023-04-25T16:09:14.374Z,98338.88
2023-04-25T16:11:40.477Z,98341.56
2023-04-25T16:14:06.578Z,98340.72
2023-04-25T16:16:32.910Z,98350.38
2023-04-25T16:18:59.072Z,98336.00
2023-04-25T16:21:25.174Z,98341.34
2023-04-25T16:23:51.565Z,98343.81
2023-04-25T16:26:17.853Z,98337.84
2023-04-25T16:28:43.949Z,98344.81
2023-04-25T16:31:10.127Z,98339.47
2023-04-25T16:33:36.253Z,98332.50
2023-04-25T16:36:02.470Z,98345.84
2023-04-25T16:38:28.584Z,98346.25
2023-04-25T16:40:54.694Z,98346.03
2023-04-25T16:43:20.798Z,98347.91
2023-04-25T16:45:46.941Z,98347.91
2023-04-25T16:48:13.069Z,98354.28
2023-04-25T16:50:39.176Z,98353.25
2023-04-25T16:53:05.291Z,98347.09
2023-04-25T16:55:31.385Z,98353.25
2023-04-25T16:57:57.479Z,98349.56
2023-04-25T17:00:25.120Z,98356.94
2023-04-25T17:02:51.329Z,98362.06
2023-04-25T17:05:17.463Z,98367.41
2023-04-25T17:07:43.592Z,98356.53
2023-04-25T17:10:09.709Z,98365.34
2023-04-25T17:12:35.796Z,98362.28
2023-04-25T17:15:01.980Z,98368.44
2023-04-25T17:17:28.108Z,98379.94
2023-04-25T17:19:54.299Z,98375.22
2023-04-25T17:22:20.452Z,98381.19
2023-04-25T17:24:46.590Z,98386.94
2023-04-25T17:27:12.704Z,98385.91
2023-04-25T17:29:38.832Z,98379.75
2023-04-25T17:32:04.942Z,98395.53
2023-04-25T17:34:31.032Z,98392.06
2023-04-25T17:36:57.180Z,98385.09
2023-04-25T17:39:23.283Z,98399.88
2023-04-25T17:41:49.428Z,98398.03
2023-04-25T17:44:15.602Z,98394.53
2023-04-25T17:46:41.753Z,98387.34
2023-04-25T17:49:07.883Z,98388.16
2023-04-25T17:51:34.080Z,98388.16
2023-04-25T17:54:00.213Z,98388.16
2023-04-25T17:56:27.748Z,98390.19
2023-04-25T17:58:54.493Z,98399.88
2023-04-25T18:01:20.978Z,98390.81
2023-04-25T18:03:47.300Z,98396.97
2023-04-25T18:06:13.564Z,98399.88
2023-04-25T18:08:39.669Z,98411.38
2023-04-25T18:11:05.763Z,98416.31
2023-04-25T18:13:31.883Z,98426.75
2023-04-25T18:15:58.030Z,98429.25
2023-04-25T18:18:24.133Z,98428.44
2023-04-25T18:20:50.247Z,98435.41
2023-04-25T18:23:16.336Z,98431.09
2023-04-25T18:25:42.441Z,98428.44
2023-04-25T18:28:08.566Z,98445.25
2023-04-25T18:30:34.702Z,98438.88
2023-04-25T18:33:00.867Z,98446.06
2023-04-25T18:35:27.013Z,98434.59
2023-04-25T18:37:53.104Z,98445.25
2023-04-25T18:40:19.210Z,98447.13
2023-04-25T18:42:45.335Z,98447.13
2023-04-25T18:45:11.427Z,98452.44
2023-04-25T18:47:37.556Z,98453.28
2023-04-25T18:50:03.725Z,98458.59
2023-04-25T18:52:29.821Z,98461.28
2023-04-25T18:54:55.933Z,98466.63
2023-04-25T18:57:22.082Z,98473.59
2023-04-25T18:59:48.184Z,98469.28
2023-04-25T19:02:14.323Z,98470.28
2023-04-25T19:04:40.625Z,98484.50
2023-04-25T19:07:06.823Z,98486.53
2023-04-25T19:09:32.944Z,98490.03
2023-04-25T19:11:59.057Z,98482.81
2023-04-25T19:14:25.159Z,98493.50
2023-04-25T19:16:51.382Z,98497.00
2023-04-25T19:19:17.591Z,98498.22
2023-04-25T19:21:43.725Z,98498.03
2023-04-25T19:24:09.898Z,98505.22
2023-04-25T19:26:36.084Z,98508.72
2023-04-25T19:29:02.178Z,98502.34
2023-04-25T19:31:28.364Z,98514.03
2023-04-25T19:33:54.691Z,98509.53
2023-04-25T19:36:20.894Z,98516.72
2023-04-25T19:38:47.009Z,98507.66
2023-04-25T19:41:13.111Z,98512.19
2023-04-25T19:43:39.257Z,98506.03
2023-04-25T19:46:05.401Z,98517.34
2023-04-25T19:48:31.560Z,98519.19
2023-04-25T19:50:57.668Z,98521.88
2023-04-25T19:53:23.756Z,98516.72
2023-04-25T19:55:49.926Z,98519.19
2023-04-25T19:58:16.067Z,98531.69
2023-04-25T20:00:42.186Z,98518.34
2023-04-25T20:03:08.355Z,98529.03
2023-04-25T20:05:34.528Z,98529.03
2023-04-25T20:08:00.621Z,98534.38
2023-04-25T20:10:26.727Z,98539.72
2023-04-25T20:12:52.857Z,98539.72
2023-04-25T20:15:18.950Z,98542.38
2023-04-25T20:17:45.135Z,98543.41
2023-04-25T20:20:11.252Z,98543.59
2023-04-25T20:22:37.373Z,98540.94
2023-04-25T20:25:03.905Z,98535.59
2023-04-25T20:27:30.015Z,98552.47
2023-04-25T20:29:56.111Z,98544.81
2023-04-25T20:32:22.324Z,98546.50
2023-04-25T20:34:48.423Z,98542.16
2023-04-25T20:37:16.175Z,98559.84
2023-04-25T20:39:42.799Z,98555.13
2023-04-25T20:42:08.960Z,98559.63
2023-04-25T20:44:35.054Z,98553.28
2023-04-25T20:47:01.187Z,98558.81
2023-04-25T20:49:27.289Z,98552.66
2023-04-25T20:51:53.381Z,98546.50
2023-04-25T20:54:19.528Z,98559.63
2023-04-25T20:56:45.658Z,98558.81
2023-04-25T20:59:11.769Z,98549.16
2023-04-25T21:01:37.980Z,98559.84
2023-04-25T21:04:04.297Z,98548.13
2023-04-25T21:06:30.489Z,98545.63
2023-04-25T21:08:56.598Z,98549.16
2023-04-25T21:11:22.722Z,98558.16
2023-04-25T21:13:48.837Z,98552.81
2023-04-25T21:16:14.943Z,98555.50
2023-04-25T21:18:41.039Z,98556.53
2023-04-25T21:21:07.125Z,98560.84
2023-04-25T21:23:33.249Z,98562.69
2023-04-25T21:25:59.344Z,98559.19
2023-04-25T21:28:25.429Z,98558.38
2023-04-25T21:30:51.556Z,98556.53
2023-04-25T21:33:17.692Z,98565.53
2023-04-25T21:35:43.789Z,98556.53
2023-04-25T21:38:09.920Z,98557.53
2023-04-25T21:40:36.022Z,98559.38
2023-04-25T21:43:02.126Z,98567.41
2023-04-25T21:45:28.243Z,98558.56
2023-04-25T21:47:54.364Z,98564.72
2023-04-25T21:50:20.466Z,98568.44
2023-04-25T21:52:46.576Z,98573.78
2023-04-25T21:55:12.665Z,98567.41
2023-04-25T21:57:38.775Z,98571.91
2023-04-25T22:00:04.940Z,98566.59
2023-04-25T22:02:31.220Z,98567.63
2023-04-25T22:04:57.462Z,98573.78
2023-04-25T22:07:23.615Z,98575.63
2023-04-25T22:09:55.038Z,98576.63
2023-04-25T22:12:21.789Z,98578.47
2023-04-25T22:14:47.909Z,98592.63
2023-04-25T22:17:14.023Z,98587.31
2023-04-25T22:19:40.118Z,98588.97
2023-04-25T22:22:06.249Z,98589.16
2023-04-25T22:24:32.359Z,98589.34
2023-04-25T22:26:58.467Z,98588.34
2023-04-25T22:29:24.989Z,98591.81
2023-04-25T22:31:51.099Z,98591.81
2023-04-25T22:34:17.208Z,98594.69
2023-04-25T22:36:43.407Z,98590.19
2023-04-25T22:39:09.546Z,98599.84
2023-04-25T22:41:35.647Z,98602.69
2023-04-25T22:44:01.773Z,98604.53
2023-04-25T22:46:27.989Z,98610.69
2023-04-25T22:48:54.294Z,98609.06
2023-04-25T22:51:20.600Z,98609.88
2023-04-25T22:53:46.748Z,98615.22
2023-04-25T22:56:12.865Z,98610.06
2023-04-25T22:58:38.977Z,98608.25
2023-04-25T23:01:05.126Z,98618.06
2023-04-25T23:03:31.322Z,98618.06
2023-04-25T23:05:57.550Z,98617.25
2023-04-25T23:08:23.643Z,98624.44
2023-04-25T23:10:49.748Z,98622.59
2023-04-25T23:13:15.884Z,98628.97
2023-04-25T23:15:41.989Z,98625.25
2023-04-25T23:18:08.174Z,98629.78
2023-04-25T23:20:34.339Z,98631.63
2023-04-25T23:23:00.439Z,98634.31
2023-04-25T23:25:26.561Z,98628.31
2023-04-25T23:27:52.720Z,98639.63
2023-04-25T23:30:18.820Z,98632.63
2023-04-25T23:32:44.977Z,98632.03
2023-04-25T23:35:11.645Z,98631.81
2023-04-25T23:37:37.733Z,98633.47
2023-04-25T23:40:03.817Z,98632.84
2023-04-25T23:42:29.983Z,98640.84
2023-04-25T23:44:56.088Z,98638.19
2023-04-25T23:47:22.240Z,98639.00
2023-04-25T23:49:48.392Z,98641.84
2023-04-25T23:52:14.499Z,98627.69
2023-04-25T23:54:40.600Z,98629.53
2023-04-25T23:57:06.726Z,98630.34
2023-04-25T23:59:32.809Z,98637.56
